sensor_id;sensor_type;location;lat;lon;timestamp;P1;durP1;ratioP1;P2;durP2;ratioP2
37383;SDS011;23258;49.718;11.082;2022-12-13T00:01:43;17.40;;;11.30;;
37383;SDS011;23258;49.718;11.082;2022-12-13T00:04:13;14.43;;;10.87;;
37383;SDS011;23258;49.718;11.082;2022-12-13T00:06:43;20.23;;;11.50;;
37383;SDS011;23258;49.718;11.082;2022-12-13T00:09:12;14.80;;;11.03;;
37383;SDS011;23258;49.718;11.082;2022-12-13T00:11:42;15.33;;;11.87;;
37383;SDS011;23258;49.718;11.082;2022-12-13T00:14:14;19.87;;;12.03;;
37383;SDS011;23258;49.718;11.082;2022-12-13T00:16:44;13.97;;;11.57;;
37383;SDS011;23258;49.718;11.082;2022-12-13T00:19:15;17.13;;;11.73;;
37383;SDS011;23258;49.718;11.082;2022-12-13T00:21:44;16.60;;;12.27;;
37383;SDS011;23258;49.718;11.082;2022-12-13T00:24:14;12.77;;;10.30;;
37383;SDS011;23258;49.718;11.082;2022-12-13T00:26:44;14.97;;;10.47;;
37383;SDS011;23258;49.718;11.082;2022-12-13T00:29:17;20.70;;;11.73;;
37383;SDS011;23258;49.718;11.082;2022-12-13T00:31:47;13.13;;;10.13;;
37383;SDS011;23258;49.718;11.082;2022-12-13T00:34:32;16.53;;;10.90;;
37383;SDS011;23258;49.718;11.082;2022-12-13T00:37:01;23.23;;;14.43;;
37383;SDS011;23258;49.718;11.082;2022-12-13T00:39:31;16.43;;;11.60;;
37383;SDS011;23258;49.718;11.082;2022-12-13T00:42:00;16.47;;;11.87;;
37383;SDS011;23258;49.718;11.082;2022-12-13T00:44:32;27.17;;;18.97;;
37383;SDS011;23258;49.718;11.082;2022-12-13T00:47:02;29.67;;;19.63;;
37383;SDS011;23258;49.718;11.082;2022-12-13T00:49:32;17.00;;;14.67;;
37383;SDS011;23258;49.718;11.082;2022-12-13T00:52:01;16.07;;;10.73;;
37383;SDS011;23258;49.718;11.082;2022-12-13T00:54:30;11.97;;;9.30;;
37383;SDS011;23258;49.718;11.082;2022-12-13T00:57:00;14.57;;;9.87;;
37383;SDS011;23258;49.718;11.082;2022-12-13T00:59:29;13.80;;;9.17;;
37383;SDS011;23258;49.718;11.082;2022-12-13T01:02:02;12.10;;;9.97;;
37383;SDS011;23258;49.718;11.082;2022-12-13T01:04:31;10.90;;;9.40;;
37383;SDS011;23258;49.718;11.082;2022-12-13T01:07:01;9.70;;;8.70;;
37383;SDS011;23258;49.718;11.082;2022-12-13T01:09:30;11.97;;;9.30;;
37383;SDS011;23258;49.718;11.082;2022-12-13T01:12:00;13.73;;;9.77;;
37383;SDS011;23258;49.718;11.082;2022-12-13T01:14:31;12.33;;;10.40;;
37383;SDS011;23258;49.718;11.082;2022-12-13T01:17:05;16.40;;;11.23;;
37383;SDS011;23258;49.718;11.082;2022-12-13T01:19:35;13.20;;;11.27;;
37383;SDS011;23258;49.718;11.082;2022-12-13T01:22:05;16.23;;;11.03;;
37383;SDS011;23258;49.718;11.082;2022-12-13T01:24:36;17.10;;;11.73;;
37383;SDS011;23258;49.718;11.082;2022-12-13T01:27:06;15.73;;;12.47;;
37383;SDS011;23258;49.718;11.082;2022-12-13T01:29:36;17.57;;;11.97;;
37383;SDS011;23258;49.718;11.082;2022-12-13T01:32:08;12.97;;;10.67;;
37383;SDS011;23258;49.718;11.082;2022-12-13T01:34:37;16.07;;;12.70;;
37383;SDS011;23258;49.718;11.082;2022-12-13T01:37:07;18.77;;;13.77;;
37383;SDS011;23258;49.718;11.082;2022-12-13T01:39:36;14.37;;;12.33;;
37383;SDS011;23258;49.718;11.082;2022-12-13T01:42:08;19.07;;;11.00;;
37383;SDS011;23258;49.718;11.082;2022-12-13T01:47:26;14.00;;;10.27;;
37383;SDS011;23258;49.718;11.082;2022-12-13T01:49:57;12.07;;;9.33;;
37383;SDS011;23258;49.718;11.082;2022-12-13T01:52:28;11.53;;;10.20;;
37383;SDS011;23258;49.718;11.082;2022-12-13T01:54:58;13.67;;;10.53;;
37383;SDS011;23258;49.718;11.082;2022-12-13T01:57:29;16.00;;;10.60;;
37383;SDS011;23258;49.718;11.082;2022-12-13T01:59:59;13.57;;;10.43;;
37383;SDS011;23258;49.718;11.082;2022-12-13T02:02:35;12.67;;;9.67;;
37383;SDS011;23258;49.718;11.082;2022-12-13T02:05:07;12.83;;;9.17;;
37383;SDS011;23258;49.718;11.082;2022-12-13T02:07:38;12.37;;;8.80;;
37383;SDS011;23258;49.718;11.082;2022-12-13T02:10:09;12.00;;;9.73;;
37383;SDS011;23258;49.718;11.082;2022-12-13T02:12:40;13.53;;;9.53;;
37383;SDS011;23258;49.718;11.082;2022-12-13T02:15:11;13.20;;;9.37;;
37383;SDS011;23258;49.718;11.082;2022-12-13T02:20:45;13.53;;;9.87;;
37383;SDS011;23258;49.718;11.082;2022-12-13T02:29:02;17.23;;;10.27;;
37383;SDS011;23258;49.718;11.082;2022-12-13T02:31:38;14.13;;;10.37;;
37383;SDS011;23258;49.718;11.082;2022-12-13T02:34:09;11.87;;;9.73;;
37383;SDS011;23258;49.718;11.082;2022-12-13T02:36:43;12.97;;;10.30;;
37383;SDS011;23258;49.718;11.082;2022-12-13T02:39:16;14.33;;;10.30;;
37383;SDS011;23258;49.718;11.082;2022-12-13T02:41:56;11.97;;;9.83;;
37383;SDS011;23258;49.718;11.082;2022-12-13T02:44:29;14.23;;;10.20;;
37383;SDS011;23258;49.718;11.082;2022-12-13T02:47:05;14.80;;;10.13;;
37383;SDS011;23258;49.718;11.082;2022-12-13T02:49:48;15.80;;;10.30;;
37383;SDS011;23258;49.718;11.082;2022-12-13T02:52:19;12.97;;;9.30;;
37383;SDS011;23258;49.718;11.082;2022-12-13T02:54:49;17.10;;;9.43;;
37383;SDS011;23258;49.718;11.082;2022-12-13T02:57:27;17.50;;;9.50;;
37383;SDS011;23258;49.718;11.082;2022-12-13T02:59:57;11.10;;;8.33;;
37383;SDS011;23258;49.718;11.082;2022-12-13T03:02:32;11.50;;;8.80;;
37383;SDS011;23258;49.718;11.082;2022-12-13T03:05:08;8.53;;;7.43;;
37383;SDS011;23258;49.718;11.082;2022-12-13T03:07:53;13.60;;;8.27;;
37383;SDS011;23258;49.718;11.082;2022-12-13T03:10:28;11.73;;;8.77;;
37383;SDS011;23258;49.718;11.082;2022-12-13T03:12:59;12.13;;;9.03;;
37383;SDS011;23258;49.718;11.082;2022-12-13T03:15:44;12.03;;;9.07;;
37383;SDS011;23258;49.718;11.082;2022-12-13T03:18:19;12.30;;;9.20;;
37383;SDS011;23258;49.718;11.082;2022-12-13T03:20:51;14.00;;;8.83;;
37383;SDS011;23258;49.718;11.082;2022-12-13T03:23:21;13.53;;;9.60;;
37383;SDS011;23258;49.718;11.082;2022-12-13T03:25:52;11.53;;;8.40;;
37383;SDS011;23258;49.718;11.082;2022-12-13T03:28:22;15.07;;;8.33;;
37383;SDS011;23258;49.718;11.082;2022-12-13T03:30:52;11.77;;;9.07;;
37383;SDS011;23258;49.718;11.082;2022-12-13T03:33:24;17.23;;;8.63;;
37383;SDS011;23258;49.718;11.082;2022-12-13T03:35:54;12.60;;;8.83;;
37383;SDS011;23258;49.718;11.082;2022-12-13T03:38:23;12.10;;;9.07;;
37383;SDS011;23258;49.718;11.082;2022-12-13T03:40:55;13.97;;;9.57;;
37383;SDS011;23258;49.718;11.082;2022-12-13T03:43:25;13.63;;;9.40;;
37383;SDS011;23258;49.718;11.082;2022-12-13T03:45:55;18.83;;;9.70;;
37383;SDS011;23258;49.718;11.082;2022-12-13T03:48:27;10.03;;;8.37;;
37383;SDS011;23258;49.718;11.082;2022-12-13T03:50:57;11.67;;;8.93;;
37383;SDS011;23258;49.718;11.082;2022-12-13T03:53:27;13.73;;;8.40;;
37383;SDS011;23258;49.718;11.082;2022-12-13T03:56:00;9.53;;;7.40;;
37383;SDS011;23258;49.718;11.082;2022-12-13T03:58:30;12.40;;;7.17;;
37383;SDS011;23258;49.718;11.082;2022-12-13T04:01:03;9.93;;;7.90;;
37383;SDS011;23258;49.718;11.082;2022-12-13T04:03:35;9.00;;;7.87;;
37383;SDS011;23258;49.718;11.082;2022-12-13T04:06:05;11.47;;;7.43;;
37383;SDS011;23258;49.718;11.082;2022-12-13T04:08:35;12.17;;;8.50;;
37383;SDS011;23258;49.718;11.082;2022-12-13T04:11:05;11.03;;;8.60;;
37383;SDS011;23258;49.718;11.082;2022-12-13T04:13:47;11.70;;;8.77;;
37383;SDS011;23258;49.718;11.082;2022-12-13T04:16:17;10.57;;;8.57;;
37383;SDS011;23258;49.718;11.082;2022-12-13T04:18:49;11.57;;;8.60;;
37383;SDS011;23258;49.718;11.082;2022-12-13T04:21:18;14.33;;;8.90;;
37383;SDS011;23258;49.718;11.082;2022-12-13T04:23:48;12.87;;;9.70;;
37383;SDS011;23258;49.718;11.082;2022-12-13T04:26:17;11.97;;;8.57;;
37383;SDS011;23258;49.718;11.082;2022-12-13T04:28:47;10.40;;;8.80;;
37383;SDS011;23258;49.718;11.082;2022-12-13T04:31:20;14.93;;;9.43;;
37383;SDS011;23258;49.718;11.082;2022-12-13T04:33:52;10.23;;;8.50;;
37383;SDS011;23258;49.718;11.082;2022-12-13T04:36:22;12.33;;;9.57;;
37383;SDS011;23258;49.718;11.082;2022-12-13T04:38:58;10.50;;;8.43;;
37383;SDS011;23258;49.718;11.082;2022-12-13T04:41:28;11.27;;;8.90;;
37383;SDS011;23258;49.718;11.082;2022-12-13T04:44:00;14.20;;;9.93;;
37383;SDS011;23258;49.718;11.082;2022-12-13T04:46:29;9.23;;;8.13;;
37383;SDS011;23258;49.718;11.082;2022-12-13T04:49:02;12.33;;;8.40;;
37383;SDS011;23258;49.718;11.082;2022-12-13T04:51:32;13.63;;;9.07;;
37383;SDS011;23258;49.718;11.082;2022-12-13T04:54:01;11.83;;;8.67;;
37383;SDS011;23258;49.718;11.082;2022-12-13T04:56:50;12.37;;;9.47;;
37383;SDS011;23258;49.718;11.082;2022-12-13T04:59:19;16.97;;;9.77;;
37383;SDS011;23258;49.718;11.082;2022-12-13T05:01:49;20.77;;;10.03;;
37383;SDS011;23258;49.718;11.082;2022-12-13T05:04:21;15.37;;;9.60;;
37383;SDS011;23258;49.718;11.082;2022-12-13T05:06:58;12.33;;;8.50;;
37383;SDS011;23258;49.718;11.082;2022-12-13T05:09:27;12.57;;;8.17;;
37383;SDS011;23258;49.718;11.082;2022-12-13T05:11:57;9.17;;;8.07;;
37383;SDS011;23258;49.718;11.082;2022-12-13T05:14:27;11.07;;;8.77;;
37383;SDS011;23258;49.718;11.082;2022-12-13T05:16:57;13.20;;;8.53;;
37383;SDS011;23258;49.718;11.082;2022-12-13T05:19:29;12.70;;;7.30;;
37383;SDS011;23258;49.718;11.082;2022-12-13T05:21:59;11.47;;;8.50;;
37383;SDS011;23258;49.718;11.082;2022-12-13T05:24:29;12.60;;;8.30;;
37383;SDS011;23258;49.718;11.082;2022-12-13T05:26:59;7.03;;;5.97;;
37383;SDS011;23258;49.718;11.082;2022-12-13T05:29:48;9.73;;;6.93;;
37383;SDS011;23258;49.718;11.082;2022-12-13T05:32:29;8.23;;;6.77;;
37383;SDS011;23258;49.718;11.082;2022-12-13T05:35:13;10.53;;;7.47;;
37383;SDS011;23258;49.718;11.082;2022-12-13T05:37:49;8.30;;;7.27;;
37383;SDS011;23258;49.718;11.082;2022-12-13T05:40:20;10.83;;;7.70;;
37383;SDS011;23258;49.718;11.082;2022-12-13T05:42:51;10.60;;;7.00;;
37383;SDS011;23258;49.718;11.082;2022-12-13T05:45:27;9.87;;;6.87;;
37383;SDS011;23258;49.718;11.082;2022-12-13T05:47:56;8.83;;;7.90;;
37383;SDS011;23258;49.718;11.082;2022-12-13T05:50:29;14.17;;;8.47;;
37383;SDS011;23258;49.718;11.082;2022-12-13T05:52:59;13.60;;;9.17;;
37383;SDS011;23258;49.718;11.082;2022-12-13T05:55:28;20.03;;;11.80;;
37383;SDS011;23258;49.718;11.082;2022-12-13T05:57:59;22.20;;;14.23;;
37383;SDS011;23258;49.718;11.082;2022-12-13T06:00:29;21.47;;;15.20;;
37383;SDS011;23258;49.718;11.082;2022-12-13T06:02:59;24.63;;;15.47;;
37383;SDS011;23258;49.718;11.082;2022-12-13T06:05:31;21.37;;;15.07;;
37383;SDS011;23258;49.718;11.082;2022-12-13T06:08:00;18.50;;;13.03;;
37383;SDS011;23258;49.718;11.082;2022-12-13T06:10:52;13.77;;;11.20;;
37383;SDS011;23258;49.718;11.082;2022-12-13T06:13:37;16.40;;;10.47;;
37383;SDS011;23258;49.718;11.082;2022-12-13T06:16:09;14.87;;;10.87;;
37383;SDS011;23258;49.718;11.082;2022-12-13T06:18:49;13.67;;;9.60;;
37383;SDS011;23258;49.718;11.082;2022-12-13T06:21:32;14.47;;;10.03;;
37383;SDS011;23258;49.718;11.082;2022-12-13T06:24:12;15.43;;;9.47;;
37383;SDS011;23258;49.718;11.082;2022-12-13T06:26:41;13.83;;;10.30;;
37383;SDS011;23258;49.718;11.082;2022-12-13T06:29:11;30.60;;;20.17;;
37383;SDS011;23258;49.718;11.082;2022-12-13T06:31:53;17.03;;;13.97;;
37383;SDS011;23258;49.718;11.082;2022-12-13T06:34:29;19.30;;;12.47;;
37383;SDS011;23258;49.718;11.082;2022-12-13T06:37:03;15.23;;;11.57;;
37383;SDS011;23258;49.718;11.082;2022-12-13T06:39:32;16.83;;;11.30;;
37383;SDS011;23258;49.718;11.082;2022-12-13T06:42:02;16.70;;;11.70;;
37383;SDS011;23258;49.718;11.082;2022-12-13T06:44:32;14.93;;;11.40;;
37383;SDS011;23258;49.718;11.082;2022-12-13T06:47:02;16.83;;;11.27;;
37383;SDS011;23258;49.718;11.082;2022-12-13T06:49:38;14.23;;;10.50;;
37383;SDS011;23258;49.718;11.082;2022-12-13T06:52:12;21.37;;;10.60;;
37383;SDS011;23258;49.718;11.082;2022-12-13T06:54:42;13.07;;;9.77;;
37383;SDS011;23258;49.718;11.082;2022-12-13T06:57:12;16.73;;;10.87;;
37383;SDS011;23258;49.718;11.082;2022-12-13T06:59:41;15.83;;;10.70;;
37383;SDS011;23258;49.718;11.082;2022-12-13T07:02:11;17.90;;;11.70;;
37383;SDS011;23258;49.718;11.082;2022-12-13T07:04:52;13.90;;;9.80;;
37383;SDS011;23258;49.718;11.082;2022-12-13T07:07:24;13.47;;;10.27;;
37383;SDS011;23258;49.718;11.082;2022-12-13T07:09:54;18.03;;;10.00;;
37383;SDS011;23258;49.718;11.082;2022-12-13T07:12:24;19.23;;;10.73;;
37383;SDS011;23258;49.718;11.082;2022-12-13T07:14:53;20.57;;;11.93;;
37383;SDS011;23258;49.718;11.082;2022-12-13T07:17:23;14.80;;;10.63;;
37383;SDS011;23258;49.718;11.082;2022-12-13T07:20:00;12.83;;;9.30;;
37383;SDS011;23258;49.718;11.082;2022-12-13T07:22:32;14.50;;;10.17;;
37383;SDS011;23258;49.718;11.082;2022-12-13T07:25:08;17.87;;;12.03;;
37383;SDS011;23258;49.718;11.082;2022-12-13T07:27:55;27.23;;;16.87;;
37383;SDS011;23258;49.718;11.082;2022-12-13T07:30:28;29.67;;;19.03;;
37383;SDS011;23258;49.718;11.082;2022-12-13T07:32:57;35.53;;;22.77;;
37383;SDS011;23258;49.718;11.082;2022-12-13T07:35:28;25.37;;;16.63;;
37383;SDS011;23258;49.718;11.082;2022-12-13T07:38:07;22.33;;;16.33;;
37383;SDS011;23258;49.718;11.082;2022-12-13T07:40:37;26.23;;;18.57;;
37383;SDS011;23258;49.718;11.082;2022-12-13T07:43:08;24.23;;;17.43;;
37383;SDS011;23258;49.718;11.082;2022-12-13T07:45:38;23.60;;;17.07;;
37383;SDS011;23258;49.718;11.082;2022-12-13T07:48:07;29.73;;;17.33;;
37383;SDS011;23258;49.718;11.082;2022-12-13T07:50:37;29.23;;;18.73;;
37383;SDS011;23258;49.718;11.082;2022-12-13T07:53:09;20.47;;;16.80;;
37383;SDS011;23258;49.718;11.082;2022-12-13T07:55:38;25.03;;;17.13;;
37383;SDS011;23258;49.718;11.082;2022-12-13T07:58:08;20.83;;;16.17;;
37383;SDS011;23258;49.718;11.082;2022-12-13T08:00:38;24.00;;;16.87;;
37383;SDS011;23258;49.718;11.082;2022-12-13T08:03:12;20.90;;;14.93;;
37383;SDS011;23258;49.718;11.082;2022-12-13T08:05:57;20.77;;;16.60;;
37383;SDS011;23258;49.718;11.082;2022-12-13T08:08:29;52.93;;;35.27;;
37383;SDS011;23258;49.718;11.082;2022-12-13T08:10:59;34.63;;;21.80;;
37383;SDS011;23258;49.718;11.082;2022-12-13T08:13:29;23.13;;;16.53;;
37383;SDS011;23258;49.718;11.082;2022-12-13T08:15:59;24.27;;;15.73;;
37383;SDS011;23258;49.718;11.082;2022-12-13T08:18:29;22.17;;;14.23;;
37383;SDS011;23258;49.718;11.082;2022-12-13T08:20:58;18.97;;;12.23;;
37383;SDS011;23258;49.718;11.082;2022-12-13T08:23:31;19.23;;;13.70;;
37383;SDS011;23258;49.718;11.082;2022-12-13T08:26:01;15.60;;;12.13;;
37383;SDS011;23258;49.718;11.082;2022-12-13T08:28:31;26.20;;;12.93;;
37383;SDS011;23258;49.718;11.082;2022-12-13T08:31:03;20.60;;;13.67;;
37383;SDS011;23258;49.718;11.082;2022-12-13T08:33:33;16.40;;;12.57;;
37383;SDS011;23258;49.718;11.082;2022-12-13T08:36:06;14.07;;;11.50;;
37383;SDS011;23258;49.718;11.082;2022-12-13T08:38:38;17.93;;;12.80;;
37383;SDS011;23258;49.718;11.082;2022-12-13T08:41:08;12.77;;;10.47;;
37383;SDS011;23258;49.718;11.082;2022-12-13T08:43:38;19.53;;;11.93;;
37383;SDS011;23258;49.718;11.082;2022-12-13T08:46:07;16.97;;;12.83;;
37383;SDS011;23258;49.718;11.082;2022-12-13T08:48:37;17.37;;;11.43;;
37383;SDS011;23258;49.718;11.082;2022-12-13T08:51:11;16.43;;;12.37;;
37383;SDS011;23258;49.718;11.082;2022-12-13T08:53:54;13.10;;;11.37;;
37383;SDS011;23258;49.718;11.082;2022-12-13T08:56:37;17.60;;;11.30;;
37383;SDS011;23258;49.718;11.082;2022-12-13T08:59:09;15.43;;;11.03;;
37383;SDS011;23258;49.718;11.082;2022-12-13T09:01:41;15.57;;;11.53;;
37383;SDS011;23258;49.718;11.082;2022-12-13T09:04:19;16.33;;;10.93;;
37383;SDS011;23258;49.718;11.082;2022-12-13T09:06:57;14.83;;;11.30;;
37383;SDS011;23258;49.718;11.082;2022-12-13T09:09:30;13.47;;;10.30;;
37383;SDS011;23258;49.718;11.082;2022-12-13T09:12:02;13.67;;;9.60;;
37383;SDS011;23258;49.718;11.082;2022-12-13T09:14:53;13.23;;;9.67;;
37383;SDS011;23258;49.718;11.082;2022-12-13T09:17:28;18.03;;;11.60;;
37383;SDS011;23258;49.718;11.082;2022-12-13T09:20:04;20.47;;;11.53;;
37383;SDS011;23258;49.718;11.082;2022-12-13T09:22:54;16.07;;;12.43;;
37383;SDS011;23258;49.718;11.082;2022-12-13T09:25:30;23.77;;;15.67;;
37383;SDS011;23258;49.718;11.082;2022-12-13T09:28:04;16.97;;;13.67;;
37383;SDS011;23258;49.718;11.082;2022-12-13T09:30:34;18.20;;;12.50;;
37383;SDS011;23258;49.718;11.082;2022-12-13T09:33:03;13.87;;;11.17;;
37383;SDS011;23258;49.718;11.082;2022-12-13T09:35:53;13.70;;;10.67;;
37383;SDS011;23258;49.718;11.082;2022-12-13T09:38:22;10.50;;;9.43;;
37383;SDS011;23258;49.718;11.082;2022-12-13T09:40:54;12.13;;;9.77;;
37383;SDS011;23258;49.718;11.082;2022-12-13T09:43:26;13.07;;;9.87;;
37383;SDS011;23258;49.718;11.082;2022-12-13T09:46:10;15.37;;;10.77;;
37383;SDS011;23258;49.718;11.082;2022-12-13T09:48:49;15.83;;;11.93;;
37383;SDS011;23258;49.718;11.082;2022-12-13T09:51:27;14.30;;;11.43;;
37383;SDS011;23258;49.718;11.082;2022-12-13T09:54:11;18.23;;;10.90;;
37383;SDS011;23258;49.718;11.082;2022-12-13T09:56:46;15.90;;;11.87;;
37383;SDS011;23258;49.718;11.082;2022-12-13T09:59:17;15.57;;;10.57;;
37383;SDS011;23258;49.718;11.082;2022-12-13T10:01:48;15.93;;;12.07;;
37383;SDS011;23258;49.718;11.082;2022-12-13T10:04:18;13.07;;;11.57;;
37383;SDS011;23258;49.718;11.082;2022-12-13T10:06:49;15.47;;;12.90;;
37383;SDS011;23258;49.718;11.082;2022-12-13T10:09:19;17.43;;;11.27;;
37383;SDS011;23258;49.718;11.082;2022-12-13T10:11:52;14.00;;;11.60;;
37383;SDS011;23258;49.718;11.082;2022-12-13T10:14:23;16.27;;;11.77;;
37383;SDS011;23258;49.718;11.082;2022-12-13T10:16:55;15.20;;;10.57;;
37383;SDS011;23258;49.718;11.082;2022-12-13T10:19:27;13.23;;;9.67;;
37383;SDS011;23258;49.718;11.082;2022-12-13T10:21:58;15.83;;;10.70;;
37383;SDS011;23258;49.718;11.082;2022-12-13T10:24:29;16.37;;;10.87;;
37383;SDS011;23258;49.718;11.082;2022-12-13T10:27:12;13.00;;;10.27;;
37383;SDS011;23258;49.718;11.082;2022-12-13T10:29:58;13.83;;;10.40;;
37383;SDS011;23258;49.718;11.082;2022-12-13T10:32:29;14.17;;;10.70;;
37383;SDS011;23258;49.718;11.082;2022-12-13T10:35:10;12.40;;;9.47;;
37383;SDS011;23258;49.718;11.082;2022-12-13T10:37:40;10.83;;;8.27;;
37383;SDS011;23258;49.718;11.082;2022-12-13T10:40:21;10.23;;;8.93;;
37383;SDS011;23258;49.718;11.082;2022-12-13T10:43:07;9.93;;;8.67;;
37383;SDS011;23258;49.718;11.082;2022-12-13T10:45:39;14.43;;;9.60;;
37383;SDS011;23258;49.718;11.082;2022-12-13T10:48:16;14.10;;;10.20;;
37383;SDS011;23258;49.718;11.082;2022-12-13T10:50:57;9.77;;;8.60;;
37383;SDS011;23258;49.718;11.082;2022-12-13T10:53:29;11.87;;;9.63;;
37383;SDS011;23258;49.718;11.082;2022-12-13T10:55:59;13.07;;;9.40;;
37383;SDS011;23258;49.718;11.082;2022-12-13T10:58:36;9.50;;;7.90;;
37383;SDS011;23258;49.718;11.082;2022-12-13T11:01:07;14.67;;;7.50;;
37383;SDS011;23258;49.718;11.082;2022-12-13T11:03:37;8.90;;;6.97;;
37383;SDS011;23258;49.718;11.082;2022-12-13T11:06:10;7.63;;;6.83;;
37383;SDS011;23258;49.718;11.082;2022-12-13T11:08:41;9.47;;;6.63;;
37383;SDS011;23258;49.718;11.082;2022-12-13T11:11:10;7.43;;;6.30;;
37383;SDS011;23258;49.718;11.082;2022-12-13T11:13:43;8.20;;;6.87;;
37383;SDS011;23258;49.718;11.082;2022-12-13T11:16:18;8.50;;;5.93;;
37383;SDS011;23258;49.718;11.082;2022-12-13T11:18:49;5.37;;;4.87;;
37383;SDS011;23258;49.718;11.082;2022-12-13T11:21:22;5.20;;;4.57;;
37383;SDS011;23258;49.718;11.082;2022-12-13T11:23:52;4.77;;;4.27;;
37383;SDS011;23258;49.718;11.082;2022-12-13T11:26:27;6.60;;;4.40;;
37383;SDS011;23258;49.718;11.082;2022-12-13T11:29:14;4.70;;;4.17;;
37383;SDS011;23258;49.718;11.082;2022-12-13T11:31:49;4.97;;;4.50;;
37383;SDS011;23258;49.718;11.082;2022-12-13T11:34:24;5.93;;;4.53;;
37383;SDS011;23258;49.718;11.082;2022-12-13T11:37:00;5.33;;;4.27;;
37383;SDS011;23258;49.718;11.082;2022-12-13T11:39:33;4.63;;;4.27;;
37383;SDS011;23258;49.718;11.082;2022-12-13T11:42:04;6.30;;;4.53;;
37383;SDS011;23258;49.718;11.082;2022-12-13T11:44:42;4.90;;;4.40;;
37383;SDS011;23258;49.718;11.082;2022-12-13T11:47:17;5.17;;;4.47;;
37383;SDS011;23258;49.718;11.082;2022-12-13T11:49:47;5.33;;;4.87;;
37383;SDS011;23258;49.718;11.082;2022-12-13T11:52:18;7.13;;;4.83;;
37383;SDS011;23258;49.718;11.082;2022-12-13T11:54:51;8.93;;;4.93;;
37383;SDS011;23258;49.718;11.082;2022-12-13T11:57:30;5.10;;;4.63;;
37383;SDS011;23258;49.718;11.082;2022-12-13T12:00:09;6.90;;;4.83;;
37383;SDS011;23258;49.718;11.082;2022-12-13T12:03:06;4.93;;;4.40;;
37383;SDS011;23258;49.718;11.082;2022-12-13T12:05:39;5.70;;;5.00;;
37383;SDS011;23258;49.718;11.082;2022-12-13T12:08:11;4.77;;;4.33;;
37383;SDS011;23258;49.718;11.082;2022-12-13T12:11:06;5.87;;;4.37;;
37383;SDS011;23258;49.718;11.082;2022-12-13T12:13:38;4.87;;;4.37;;
37383;SDS011;23258;49.718;11.082;2022-12-13T12:16:22;4.40;;;4.00;;
37383;SDS011;23258;49.718;11.082;2022-12-13T12:18:53;5.30;;;4.23;;
37383;SDS011;23258;49.718;11.082;2022-12-13T12:21:34;6.43;;;4.70;;
37383;SDS011;23258;49.718;11.082;2022-12-13T12:24:28;4.73;;;4.23;;
37383;SDS011;23258;49.718;11.082;2022-12-13T12:27:07;8.13;;;4.30;;
37383;SDS011;23258;49.718;11.082;2022-12-13T12:30:02;4.13;;;3.73;;
37383;SDS011;23258;49.718;11.082;2022-12-13T12:32:36;4.83;;;3.93;;
37383;SDS011;23258;49.718;11.082;2022-12-13T12:35:20;4.35;;;3.53;;
37383;SDS011;23258;49.718;11.082;2022-12-13T12:37:56;4.75;;;4.35;;
37383;SDS011;23258;49.718;11.082;2022-12-13T12:40:39;3.78;;;3.30;;
37383;SDS011;23258;49.718;11.082;2022-12-13T12:43:33;4.57;;;3.60;;
37383;SDS011;23258;49.718;11.082;2022-12-13T12:46:07;3.33;;;3.13;;
37383;SDS011;23258;49.718;11.082;2022-12-13T12:48:55;3.45;;;3.13;;
37383;SDS011;23258;49.718;11.082;2022-12-13T12:51:30;3.53;;;3.22;;
37383;SDS011;23258;49.718;11.082;2022-12-13T12:54:07;3.60;;;3.30;;
37383;SDS011;23258;49.718;11.082;2022-12-13T12:56:41;3.30;;;3.05;;
37383;SDS011;23258;49.718;11.082;2022-12-13T12:59:16;6.13;;;3.45;;
37383;SDS011;23258;49.718;11.082;2022-12-13T13:01:51;3.90;;;3.05;;
37383;SDS011;23258;49.718;11.082;2022-12-13T13:04:27;3.42;;;3.13;;
37383;SDS011;23258;49.718;11.082;2022-12-13T13:06:58;3.72;;;3.42;;
37383;SDS011;23258;49.718;11.082;2022-12-13T13:09:29;3.13;;;2.83;;
37383;SDS011;23258;49.718;11.082;2022-12-13T13:12:01;3.20;;;3.00;;
37383;SDS011;23258;49.718;11.082;2022-12-13T13:14:52;3.38;;;3.08;;
37383;SDS011;23258;49.718;11.082;2022-12-13T13:20:18;3.63;;;3.33;;
37383;SDS011;23258;49.718;11.082;2022-12-13T13:22:49;4.05;;;3.63;;
37383;SDS011;23258;49.718;11.082;2022-12-13T13:25:53;3.85;;;3.55;;
37383;SDS011;23258;49.718;11.082;2022-12-13T13:28:43;3.60;;;3.30;;
37383;SDS011;23258;49.718;11.082;2022-12-13T13:31:13;5.15;;;4.07;;
37383;SDS011;23258;49.718;11.082;2022-12-13T13:33:43;3.95;;;3.65;;
37383;SDS011;23258;49.718;11.082;2022-12-13T13:39:10;4.50;;;3.17;;
37383;SDS011;23258;49.718;11.082;2022-12-13T13:41:53;3.22;;;2.70;;
37383;SDS011;23258;49.718;11.082;2022-12-13T13:44:33;2.67;;;2.42;;
37383;SDS011;23258;49.718;11.082;2022-12-13T13:47:09;4.53;;;3.15;;
37383;SDS011;23258;49.718;11.082;2022-12-13T13:49:41;3.35;;;3.05;;
37383;SDS011;23258;49.718;11.082;2022-12-13T13:52:15;3.50;;;3.20;;
37383;SDS011;23258;49.718;11.082;2022-12-13T13:54:57;4.25;;;3.60;;
37383;SDS011;23258;49.718;11.082;2022-12-13T13:57:43;3.88;;;3.50;;
37383;SDS011;23258;49.718;11.082;2022-12-13T14:00:38;4.10;;;2.92;;
37383;SDS011;23258;49.718;11.082;2022-12-13T14:09:10;3.38;;;2.80;;
37383;SDS011;23258;49.718;11.082;2022-12-13T14:14:37;4.72;;;2.70;;
37383;SDS011;23258;49.718;11.082;2022-12-13T14:22:45;3.58;;;3.05;;
37383;SDS011;23258;49.718;11.082;2022-12-13T14:25:20;3.38;;;3.08;;
37383;SDS011;23258;49.718;11.082;2022-12-13T14:27:53;2.92;;;2.70;;
37383;SDS011;23258;49.718;11.082;2022-12-13T14:30:28;4.40;;;3.17;;
37383;SDS011;23258;49.718;11.082;2022-12-13T14:32:59;2.57;;;2.03;;
37383;SDS011;23258;49.718;11.082;2022-12-13T14:35:29;3.10;;;2.67;;
37383;SDS011;23258;49.718;11.082;2022-12-13T14:38:01;2.97;;;2.67;;
37383;SDS011;23258;49.718;11.082;2022-12-13T14:40:32;2.90;;;2.53;;
37383;SDS011;23258;49.718;11.082;2022-12-13T14:43:02;3.93;;;2.50;;
37383;SDS011;23258;49.718;11.082;2022-12-13T14:45:34;3.90;;;2.70;;
37383;SDS011;23258;49.718;11.082;2022-12-13T14:48:09;3.07;;;2.50;;
37383;SDS011;23258;49.718;11.082;2022-12-13T14:50:40;2.73;;;2.43;;
37383;SDS011;23258;49.718;11.082;2022-12-13T14:53:16;2.50;;;2.30;;
37383;SDS011;23258;49.718;11.082;2022-12-13T14:56:04;2.20;;;2.00;;
37383;SDS011;23258;49.718;11.082;2022-12-13T14:58:34;2.97;;;2.67;;
37383;SDS011;23258;49.718;11.082;2022-12-13T15:01:22;2.33;;;2.23;;
37383;SDS011;23258;49.718;11.082;2022-12-13T15:06:41;2.33;;;2.13;;
37383;SDS011;23258;49.718;11.082;2022-12-13T15:09:14;2.20;;;2.00;;
37383;SDS011;23258;49.718;11.082;2022-12-13T15:11:44;4.50;;;4.20;;
37383;SDS011;23258;49.718;11.082;2022-12-13T15:14:15;3.17;;;2.60;;
37383;SDS011;23258;49.718;11.082;2022-12-13T15:16:49;3.63;;;2.20;;
37383;SDS011;23258;49.718;11.082;2022-12-13T15:19:23;2.07;;;1.90;;
37383;SDS011;23258;49.718;11.082;2022-12-13T15:22:00;2.10;;;2.00;;
37383;SDS011;23258;49.718;11.082;2022-12-13T15:24:34;4.07;;;2.67;;
37383;SDS011;23258;49.718;11.082;2022-12-13T15:27:08;2.17;;;2.07;;
37383;SDS011;23258;49.718;11.082;2022-12-13T15:29:40;4.07;;;2.90;;
37383;SDS011;23258;49.718;11.082;2022-12-13T15:32:15;4.10;;;3.90;;
37383;SDS011;23258;49.718;11.082;2022-12-13T15:34:45;3.40;;;3.17;;